Wallace, New York
Current Conditions -  °F | °C
As of 4:54 AM on Monday 22 Dec 2014 (Local Time) from KDSV Reporting Station
Clear Clear  
Wind Chill: 17°   Ceiling: Unl
Heat Index: 25°   Visibility: 10mi
Dew Point: 19°   Wind: 7mph
Humidity: 78%   Direction: 160°SSE
Pressure: 30.23"   Gusts: NA
Location:  42.4193°N, 77.4498°W
Report Text: KDSV 220954Z AUTO 16006KT 10SM CLR M04/M07 A3023 RMK AO2 SLP255 T10391072
Loading
Personal Weather Stations






























Interactive Weather Map New forecast layout! Learn more

10-Day Weather Forecast

Advertisements
Track Severe Weather on mobile